Flight Track Log - Related Links

Times and Time Zones

All times are in EDT time to prevent confusion due to time zone crossing. See the ASA700 flight status page for this flight to view local times or setup timezone preferences in your user account.

Time Position Orientation Groundspeed Altitude Reporting Facility
EDT Latitude Longitude Course Direction KTS MPH feet Rate Location/Type
Sun 07:35:25 PM 49.1667 -123.2333 135° Southeast 180 207 1,000  Level Vancouver Center
Sun 07:36:25 PM 49.1667 -123.3167 270° West 230 265 2,500 1,700 Climbing Vancouver Center
Sun 07:37:25 PM 49.1500 -123.3833 249° West 230 265 4,400 1,950 Climbing Vancouver Center
Sun 07:38:25 PM 49.0833 -123.3667 171° South 260 299 6,400 2,300 Climbing Vancouver Center
Sun 07:39:00 PM 48.4018 -122.8687 159° South  Level Estimated
Sun 07:39:25 PM 49.0000 -123.3167 159° South 270 311 9,000  Level Vancouver Center
Sun 07:40:00 PM 48.3188 -122.7447 135° Southeast  Level FlightAware Approximate
Sun 07:40:25 PM 48.9333 -123.2667 154° Southeast 280 322 11,000  Level Vancouver Center
Sun 07:41:25 PM 48.8500 -123.2167 158° South 320 368 12,600 1,700 Climbing Vancouver Center
Sun 07:42:25 PM 48.7667 -123.1333 147° Southeast 350 403 14,400 1,800 Climbing Vancouver Center
Sun 07:43:25 PM 48.6667 -123.1000 168° South 380 437 16,200 1,810 Climbing Vancouver Center
Sun 07:44:21 PM 48.5969 -123.0353 148° Southeast 395 455 17,900 1,897 Climbing Seattle Center
Sun 07:45:22 PM 48.4931 -122.9675 157° South 406 467 19,900 1,770 Climbing Seattle Center
Sun 07:46:23 PM 48.3844 -122.8992 157° South 422 486 21,500 1,574 Climbing Seattle Center
Sun 07:47:24 PM 48.2728 -122.8294 157° South 432 497 23,100 1,475 Climbing Seattle Center
Sun 07:48:25 PM 48.1589 -122.7589 158° South 445 512 24,500 1,328 Climbing Seattle Center
Sun 07:49:26 PM 48.0214 -122.6722 157° South 453 521 25,800 1,279 Climbing Seattle Center
Sun 07:50:27 PM 47.9047 -122.5992 157° South 459 528 27,100 1,328 Climbing Seattle Center
Sun 07:51:28 PM 47.7872 -122.5267 157° South 464 534 28,500 1,328 Climbing Seattle Center
Sun 07:52:29 PM 47.6800 -122.4597 157° South 458 527 29,800 1,537 Climbing Seattle Center
Sun 07:53:29 PM 47.5433 -122.3772 158° South 454 522 31,600 1,537 Climbing Seattle Center
Sun 07:54:30 PM 47.4314 -122.3108 158° South 442 509 32,900 1,279 Climbing Seattle Center
Sun 07:55:31 PM 47.3114 -122.2811 170° South 443 510 34,200 1,033 Climbing Seattle Center
Sun 07:56:32 PM 47.1917 -122.2856 181° South 436 502 35,000 393 Climbing Seattle Center
Sun 07:57:33 PM 47.0728 -122.2892 181° South 433 498 35,000  Level Seattle Center
Sun 07:58:34 PM 46.9561 -122.2606 170° South 428 493 35,000  Level Seattle Center
Sun 07:59:35 PM 46.8389 -122.2336 171° South 432 497 35,000  Level Seattle Center
Sun 08:00:39 PM 46.6983 -122.1992 170° South 431 496 35,000  Level Seattle Center
Sun 08:01:40 PM 46.5803 -122.1708 171° South 433 498 35,000  Level Seattle Center
Sun 08:02:41 PM 46.4631 -122.1414 170° South 433 498 35,000  Level Seattle Center
Sun 08:03:42 PM 46.3433 -122.1142 171° South 438 504 35,000  Level Seattle Center
Sun 08:04:43 PM 46.2242 -122.0858 171° South 439 505 35,000  Level Seattle Center
Sun 08:05:44 PM 46.1067 -122.0608 172° South 441 507 35,000  Level Seattle Center
Sun 08:06:45 PM 45.9847 -122.0294 170° South 442 509 35,000  Level Seattle Center
Sun 08:07:46 PM 45.8639 -122.0017 171° South 442 509 35,000  Level Seattle Center
Sun 08:08:47 PM 45.7175 -121.9675 171° South 446 513 35,000  Level Seattle Center
Sun 08:09:48 PM 45.5978 -121.9383 170° South 447 514 35,000  Level Seattle Center
Sun 08:10:49 PM 45.4714 -121.9100 171° South 456 525 35,000  Level Seattle Center
Sun 08:11:50 PM 45.3450 -121.8822 171° South 460 529 35,000  Level Seattle Center
Sun 08:12:51 PM 45.2186 -121.8525 171° South 461 531 35,000  Level Seattle Center
Sun 08:13:52 PM 45.0911 -121.8233 171° South 465 535 35,000  Level Seattle Center
Sun 08:14:52 PM 44.9647 -121.7942 171° South 464 534 35,000  Level Seattle Center
Sun 08:15:53 PM 44.8342 -121.7642 171° South 473 544 35,000  Level Seattle Center
Sun 08:16:54 PM 44.7042 -121.7356 171° South 476 548 35,000  Level Seattle Center
Sun 08:17:55 PM 44.5469 -121.7014 171° South 478 550 35,000  Level Seattle Center
Sun 08:18:56 PM 44.4144 -121.6714 171° South 483 556 35,000  Level Seattle Center
Sun 08:19:57 PM 44.2833 -121.6428 171° South 481 554 35,000  Level Seattle Center
Sun 08:20:58 PM 44.1525 -121.6128 171° South 480 552 35,000  Level Seattle Center
Sun 08:21:59 PM 44.0208 -121.5836 171° South 480 552 35,000  Level Seattle Center
Sun 08:23:00 PM 43.8903 -121.5564 171° South 477 549 35,000  Level Seattle Center
Sun 08:24:01 PM 43.7472 -121.5281 172° South 480 552 35,000  Level Seattle Center
Sun 08:25:01 PM 43.6172 -121.4989 171° South 474 545 35,000  Level Seattle Center
Sun 08:26:02 PM 43.4875 -121.4708 171° South 473 544 35,000  Level Seattle Center
Sun 08:27:03 PM 43.3569 -121.4444 172° South 473 544 35,000  Level Seattle Center
Sun 08:28:04 PM 43.2258 -121.4150 171° South 475 547 35,000  Level Seattle Center
Sun 08:29:05 PM 43.0953 -121.3875 171° South 476 548 35,000  Level Seattle Center
Sun 08:30:06 PM 42.9636 -121.3592 171° South 478 550 35,000  Level Seattle Center
Sun 08:31:06 PM 42.8328 -121.3331 172° South 475 547 35,000  Level Seattle Center
Sun 08:32:07 PM 42.6997 -121.3044 171° South 480 552 35,000  Level Seattle Center
Sun 08:33:08 PM 42.5672 -121.2783 172° South 480 552 35,000  Level Seattle Center
Sun 08:34:09 PM 42.4353 -121.2514 171° South 477 549 35,000  Level Seattle Center
Sun 08:35:10 PM 42.3025 -121.2247 172° South 479 551 35,000  Level Seattle Center
Sun 08:36:11 PM 42.1694 -121.1967 171° South 481 554 35,000  Level Seattle Center
Sun 08:37:12 PM 42.0372 -121.1694 171° South 477 549 35,000  Level Seattle Center
Sun 08:38:12 PM 41.9039 -121.1422 171° South 479 551 35,000  Level Seattle Center
Sun 08:39:13 PM 41.7728 -121.1172 172° South 476 548 35,000  Level Seattle Center
Sun 08:40:14 PM 41.6158 -121.0844 171° South 472 543 35,000  Level Seattle Center
Sun 08:41:15 PM 41.4831 -121.0583 172° South 479 551 35,000  Level Seattle Center
Sun 08:42:16 PM 41.3503 -121.0306 171° South 481 554 35,000  Level Seattle Center
Sun 08:43:17 PM 41.2189 -120.9919 168° South 487 560 35,000  Level Seattle Center
Sun 08:44:17 PM 41.0900 -120.9206 157° South 501 577 35,000  Level Seattle Center
Sun 08:45:18 PM 40.9631 -120.8486 157° South 498 573 35,000  Level Seattle Center
Sun 08:46:19 PM 40.8358 -120.7756 157° South 499 574 35,000  Level Seattle Center
Sun 08:47:20 PM 40.7069 -120.7064 158° South 500 575 35,000  Level Seattle Center
Sun 08:48:21 PM 40.5750 -120.6494 162° South 498 573 35,000  Level Seattle Center
Sun 08:49:22 PM 40.4392 -120.6075 167° South 500 575 35,000  Level Seattle Center
Sun 08:50:23 PM 40.3067 -120.5714 168° South 497 572 35,000  Level Seattle Center
Sun 08:51:24 PM 40.1683 -120.5433 171° South 499 574 35,000  Level Seattle Center
Sun 08:52:24 PM 40.0292 -120.5175 172° South 502 578 35,000  Level Seattle Center
Sun 08:53:40 PM 39.8392 -120.4819 172° South 504 580 35,000  Level Oakland Center
Sun 08:54:42 PM 39.7008 -120.4536 171° South 503 579 35,000  Level Oakland Center
Sun 08:55:43 PM 39.5617 -120.4281 172° South 503 579 35,000  Level Oakland Center
Sun 08:56:45 PM 39.4228 -120.4006 171° South 504 580 35,000  Level Oakland Center
Sun 08:57:46 PM 39.2833 -120.3736 171° South 504 580 35,000  Level Oakland Center
Sun 08:58:47 PM 39.1447 -120.3467 171° South 504 580 35,000  Level Oakland Center
Sun 08:59:49 PM 39.0028 -120.3200 172° South 508 585 35,000  Level Oakland Center
Sun 09:00:50 PM 38.8353 -120.2869 171° South 505 581 35,000  Level Oakland Center
Sun 09:01:51 PM 38.6947 -120.2614 172° South 507 583 35,000  Level Oakland Center
Sun 09:02:53 PM 38.5536 -120.2361 172° South 507 583 35,000  Level Oakland Center
Sun 09:03:54 PM 38.4125 -120.2094 172° South 509 586 35,000  Level Oakland Center
Sun 09:04:55 PM 38.2742 -120.1825 171° South 504 580 35,000  Level Oakland Center
Sun 09:05:57 PM 38.1356 -120.1561 171° South 503 579 35,000  Level Oakland Center
Sun 09:06:58 PM 37.9942 -120.1294 172° South 507 583 35,000  Level Oakland Center
Sun 09:08:00 PM 37.8533 -120.1044 172° South 510 587 35,000  Level Oakland Center
Sun 09:09:01 PM 37.7128 -120.0778 171° South 509 586 35,000  Level Oakland Center
Sun 09:10:02 PM 37.5722 -120.0536 172° South 509 586 35,000  Level Oakland Center
Sun 09:11:04 PM 37.4314 -120.0286 172° South 508 585 35,000  Level Oakland Center
Sun 09:12:05 PM 37.2625 -119.9983 172° South 510 587 35,000  Level Oakland Center
Sun 09:13:06 PM 37.1214 -119.9719 172° South 510 587 35,000  Level Oakland Center
Sun 09:14:08 PM 37.0025 -119.9297 164° South 516 594 35,000  Level Oakland Center
Sun 09:15:09 PM 36.8306 -119.8981 172° South 519 597 35,000  Level Oakland Center
Sun 09:16:10 PM 36.6869 -119.8761 173° South 520 598 35,000  Level Oakland Center
Sun 09:17:12 PM 36.5486 -119.8989 188° South 510 587 35,000  Level Oakland Center
Sun 09:18:13 PM 36.4217 -119.9586 201° Southwest 491 565 35,000  Level Oakland Center
Sun 09:19:14 PM 36.2947 -120.0211 202° Southwest 490 564 35,000  Level Oakland Center
Sun 09:20:16 PM 36.1686 -120.0825 201° Southwest 490 564 35,000  Level Oakland Center
Sun 09:21:17 PM 36.0419 -120.1417 201° Southwest 487 560 35,000  Level Oakland Center
Sun 09:22:18 PM 35.9039 -120.0881 163° South 525 604 35,000  Level Oakland Center
Sun 09:23:19 PM 35.7744 -119.9953 150° Southeast 534 615 35,000 -49 Level Oakland Center
Sun 09:24:21 PM 35.6453 -119.9117 152° Southeast 522 601 34,900  Descending Oakland Center
Sun 09:25:10 PM 35.5683 -119.8944 170° South 496 571 35,000 54 Climbing Los Angeles Center
Sun 09:26:13 PM 35.3828 -119.8519 169° South 479 551 35,000  Level Los Angeles Center
Sun 09:27:14 PM 35.2550 -119.7992 161° South 486 559 35,000 -829 Level Los Angeles Center
Sun 09:28:16 PM 35.1494 -119.6947 141° Southeast 485 558 33,300 -2,177 Descending Los Angeles Center
Sun 09:29:18 PM 35.0453 -119.5883 140° Southeast 487 560 30,500 -2,226 Descending Los Angeles Center
Sun 09:30:20 PM 34.9636 -119.5028 139° Southeast 485 558 28,700 -2,129 Descending Los Angeles Center
Sun 09:31:22 PM 34.8456 -119.3758 139° Southeast 471 542 26,100 -2,274 Descending Los Angeles Center
Sun 09:32:24 PM 34.7478 -119.2781 141° Southeast 459 528 24,000 -1,561 Descending Los Angeles Center
Sun 09:33:25 PM 34.6550 -119.1814 139° Southeast 440 506 22,900 -1,366 Descending Los Angeles Center
Sun 09:34:27 PM 34.5542 -119.0825 141° Southeast 413 475 21,200 -2,032 Descending Los Angeles Center
Sun 09:35:29 PM 34.4675 -118.9936 140° Southeast 408 470 18,700 -2,371 Descending Los Angeles Center
Sun 09:36:31 PM 34.3819 -118.9078 140° Southeast 400 460 16,300 -1,935 Descending Los Angeles Center
Sun 09:37:33 PM 34.2908 -118.8569 155° Southeast 364 419 14,700 -1,548 Descending Los Angeles Center
Sun 09:38:35 PM 34.1881 -118.8194 163° South 322 371 13,100 -1,220 Descending Los Angeles Center
Sun 09:39:36 PM 34.1225 -118.7953 163° South 309 356 12,200 -1,317 Descending Los Angeles Center
Sun 09:40:38 PM 34.0375 -118.7358 150° Southeast 305 351 10,400 -1,113 Descending Los Angeles Center
Sun 09:41:40 PM 34.0264 -118.6283 97° East 293 337 9,900 -726 Descending Los Angeles Center
Sun 09:42:42 PM 34.0175 -118.5386 97° East 274 315 8,900 -1,016 Descending Los Angeles Center
Sun 09:43:44 PM 34.0103 -118.4500 96° East 266 306 7,800 -968 Descending Los Angeles Center
Sun 09:44:46 PM 34.0247 -118.3775 76° East 254 292 6,900 -1,065 Descending Los Angeles Center
Sun 09:45:48 PM 34.0397 -118.2756 80° East 256 295 5,600 -1,024 Descending Los Angeles Center
Sun 09:46:49 PM 34.0508 -118.1928 81° East 252 290 4,800 -836 Descending Los Angeles Center
Sun 09:47:50 PM 34.0500 -118.1167 91° East 230 265 3,900 -1,041 Descending Southern California TRACON
Sun 09:48:50 PM 34.0167 -118.0500 121° Southeast 224 258 2,700 -650 Descending Southern California TRACON
Sun 09:49:50 PM 33.9833 -118.1000 231° Southwest 213 245 2,600 -50 Descending Southern California TRACON
Sun 09:50:51 PM 33.9833 -118.1667 270° West 193 222 2,600  Level Southern California TRACON
Sun 09:51:51 PM 33.9667 -118.2167 248° West 191 220 2,600 -369 Level Southern California TRACON
Sun 09:53:01 PM 33.9631 -118.2989 267° West 193 222 1,800 -779 Descending Los Angeles Center
Sun 09:54:02 PM 33.9575 -118.3556 263° West 183 211 900 -780 Descending Los Angeles Center
Sun 09:55:04 PM 33.9522 -118.4011 262° West 155 178 200 -677 Descending Los Angeles Center
Sun 09:57:00 PM 33.9425 -118.4081 228° Southwest  Level Estimated

Login

Don't have an account? Register now (free) for customized features, flight alerts, and more!